CBG weather

Cambridge Airport
Cambridge, England, United Kingdom

Public forecast

Using degrees Celsius for public forecast. Weather courtesy of forecast.io.

METAR (pilot weather report)

Report is more than 2 hours old.

Retrieved 2019/03/19 17:50 UTC (3 hours ago):

EGSC 191750Z 24008KT 9999 SCT045 12/07 Q1027

TAF (pilot weather forecast)

Closest forecast is RAF Mildenhall, 14.8 nm (27.4 km) NE. Retrieved 2019/03/19 20:09 UTC (45 minutes ago):

TAF TAF EGUN 192010Z 1920/2102 23006KT 9999 BKN050 QNH3035INS BECMG 2002/2003 24006KT 5000 BR BKN015 QNH3041INS TEMPO 2003/2008 3200 BR BKN009 BECMG 2007/2008 25006KT 9999 NSW BKN020 QNH3046INS TX13/2013Z TN07/2003Z